Time;durP1;ratioP1;P1;durP2;ratioP2;P2;SDS_P1;SDS_P2;PMS_P1;PMS_P2;Temp;Humidity;BMP_temperature;BMP_pressure;BME280_temperature;BME280_humidity;BME280_pressure;Samples;Min_cycle;Max_cycle;Signal;HPM_P1;HPM_P2
2023/07/12 00:00:25;;;;;;;16.90;8.90;;;23.80;95.20;;;;;;5052493;28;20543;-80
2023/07/12 00:02:52;;;;;;;15.03;6.70;;;23.50;95.80;;;;;;5049926;28;20521;-81
2023/07/12 02:42:43;;;;;;;3.13;1.13;;;18.40;99.90;;;;;;5052951;28;21223;-78
2023/07/12 02:45:10;;;;;;;4.20;1.20;;;18.50;99.90;;;;;;5058284;28;20872;-77
2023/07/12 02:47:37;;;;;;;5.90;1.30;;;18.40;99.90;;;;;;5056646;28;20499;-77
2023/07/12 02:50:05;;;;;;;1.53;0.90;;;18.40;99.90;;;;;;5058673;28;20551;-77
2023/07/12 02:52:33;;;;;;;1.40;1.00;;;18.60;99.90;;;;;;5056588;28;20448;-78
2023/07/12 02:55:00;;;;;;;1.60;1.20;;;18.70;99.90;;;;;;5055675;28;20445;-78
2023/07/12 02:57:27;;;;;;;4.93;0.97;;;18.70;99.90;;;;;;5058112;28;20542;-78
2023/07/12 02:59:55;;;;;;;2.30;1.00;;;18.60;99.90;;;;;;5056395;28;20480;-81
2023/07/12 03:02:22;;;;;;;2.97;1.20;;;18.80;99.90;;;;;;5058481;28;21719;-78
2023/07/12 03:04:49;;;;;;;1.43;0.90;;;18.80;99.90;;;;;;5057506;28;20490;-78
2023/07/12 03:07:16;;;;;;;5.70;1.63;;;18.90;99.90;;;;;;5058884;28;20482;-81
2023/07/12 03:09:43;;;;;;;2.60;0.90;;;18.90;99.90;;;;;;5059433;28;20546;-78
2023/07/12 03:12:10;;;;;;;2.10;0.70;;;18.90;99.90;;;;;;5058114;28;20579;-78
2023/07/12 03:14:37;;;;;;;1.20;0.80;;;18.90;99.90;;;;;;5057859;28;20503;-78
2023/07/12 03:17:06;;;;;;;3.33;1.73;;;18.70;99.90;;;;;;5059974;28;20447;-82
2023/07/12 03:19:35;;;;;;;1.47;1.00;;;18.70;99.90;;;;;;5055639;28;20471;-78
2023/07/12 03:22:03;;;;;;;2.07;1.40;;;18.80;99.90;;;;;;5061008;27;20455;-78
2023/07/12 03:24:30;;;;;;;2.80;1.00;;;18.90;99.90;;;;;;5050546;28;20551;-79
2023/07/12 03:26:57;;;;;;;2.10;1.20;;;18.90;99.90;;;;;;5060990;28;20439;-78
2023/07/12 03:29:24;;;;;;;2.70;1.30;;;19.00;99.90;;;;;;5058038;28;20480;-78
2023/07/12 03:31:51;;;;;;;1.90;0.93;;;19.00;99.90;;;;;;5057919;28;20558;-78
2023/07/12 03:34:19;;;;;;;1.50;1.30;;;19.00;99.90;;;;;;5057265;28;20484;-78
2023/07/12 03:36:46;;;;;;;2.43;1.00;;;18.80;99.90;;;;;;5056504;28;21169;-80
2023/07/12 03:39:16;;;;;;;3.03;1.10;;;18.90;99.90;;;;;;5066163;27;20544;-79
2023/07/12 03:41:43;;;;;;;1.40;1.10;;;18.80;99.90;;;;;;5062594;27;20480;-79
2023/07/12 03:44:10;;;;;;;3.80;0.80;;;18.60;99.90;;;;;;5042617;28;20559;-80
2023/07/12 03:46:37;;;;;;;1.23;1.13;;;18.60;99.90;;;;;;5046908;28;20489;-77
2023/07/12 03:49:04;;;;;;;1.07;0.97;;;18.60;99.90;;;;;;5039603;28;20462;-77
2023/07/12 03:51:33;;;;;;;2.40;1.23;;;18.70;99.90;;;;;;5046266;28;20584;-77
2023/07/12 03:53:59;;;;;;;2.80;1.20;;;18.50;99.90;;;;;;5046959;28;20472;-77
2023/07/12 03:56:26;;;;;;;2.60;1.13;;;18.60;99.90;;;;;;5045715;28;20545;-77
2023/07/12 03:58:53;;;;;;;2.60;1.63;;;18.70;99.90;;;;;;5044272;28;20473;-78
2023/07/12 04:01:20;;;;;;;2.90;1.57;;;18.70;99.90;;;;;;5044223;28;20565;-79
2023/07/12 04:03:47;;;;;;;1.27;1.17;;;18.50;99.90;;;;;;5046530;28;20538;-77
2023/07/12 04:06:14;;;;;;;7.10;1.50;;;18.60;99.90;;;;;;5041226;28;20465;-77
2023/07/12 04:08:42;;;;;;;0.80;0.80;;;18.70;99.90;;;;;;5039630;28;20493;-78
2023/07/12 04:11:19;;;;;;;2.30;0.93;;;18.70;99.90;;;;;;5046697;28;20572;-78
2023/07/12 04:13:46;;;;;;;3.33;1.33;;;18.80;99.90;;;;;;5044426;28;20523;-78
2023/07/12 04:16:15;;;;;;;1.47;1.37;;;18.90;99.90;;;;;;5044251;28;20532;-78
2023/07/12 04:18:42;;;;;;;1.00;1.00;;;19.00;99.90;;;;;;5042682;28;20952;-80
2023/07/12 04:21:09;;;;;;;2.10;1.70;;;19.10;99.90;;;;;;5046844;28;20476;-78
2023/07/12 04:23:37;;;;;;;2.13;1.20;;;19.00;99.90;;;;;;5041924;28;20503;-81
2023/07/12 04:26:06;;;;;;;1.73;1.63;;;19.10;99.90;;;;;;5043584;28;20981;-78
2023/07/12 04:28:37;;;;;;;1.90;1.10;;;19.00;99.90;;;;;;5043779;28;20529;-79
2023/07/12 04:31:05;;;;;;;3.90;1.23;;;19.10;99.90;;;;;;5045690;28;20495;-78
2023/07/12 04:33:32;;;;;;;3.07;1.40;;;19.10;99.90;;;;;;5041431;28;20545;-78
2023/07/12 04:36:03;;;;;;;1.33;1.10;;;19.20;99.90;;;;;;5042895;28;20837;-79
2023/07/12 04:38:30;;;;;;;3.93;1.57;;;19.30;99.90;;;;;;5045270;27;20472;-81
2023/07/12 04:40:57;;;;;;;2.40;1.03;;;19.40;99.90;;;;;;5049047;27;21058;-78
2023/07/12 04:43:26;;;;;;;4.33;1.80;;;19.70;99.90;;;;;;5044360;27;20546;-79
2023/07/12 04:45:53;;;;;;;1.30;1.20;;;19.80;99.90;;;;;;5049277;27;20472;-79
2023/07/12 04:48:20;;;;;;;1.73;0.93;;;20.00;99.90;;;;;;5045595;27;20464;-79
2023/07/12 04:50:51;;;;;;;2.53;1.00;;;20.20;99.90;;;;;;5040612;28;20496;-78
2023/07/12 04:53:17;;;;;;;1.20;0.97;;;20.30;99.90;;;;;;5036914;28;20549;-78
2023/07/12 04:55:44;;;;;;;4.60;1.77;;;20.40;99.90;;;;;;5027112;27;20564;-80
2023/07/12 04:58:11;;;;;;;3.60;1.20;;;20.30;99.90;;;;;;5048798;27;20773;-81
2023/07/12 05:00:40;;;;;;;6.47;1.37;;;20.20;99.90;;;;;;5040126;28;20559;-80
2023/07/12 05:03:07;;;;;;;1.10;0.90;;;20.30;99.90;;;;;;5080620;27;20477;-78
2023/07/12 05:05:33;;;;;;;3.77;1.10;;;20.40;99.90;;;;;;5045107;27;20544;-79
2023/07/12 05:08:00;;;;;;;2.03;1.33;;;20.40;99.90;;;;;;5041566;27;20565;-79
2023/07/12 05:10:27;;;;;;;1.83;1.53;;;20.50;99.90;;;;;;5054786;27;21036;-77
2023/07/12 05:12:54;;;;;;;2.33;1.10;;;20.70;99.90;;;;;;5047772;27;21233;-79
2023/07/12 05:15:21;;;;;;;4.53;2.27;;;20.80;99.90;;;;;;5054384;27;20540;-81
2023/07/12 05:17:49;;;;;;;3.73;1.80;;;20.80;99.90;;;;;;5035898;27;20552;-81
2023/07/12 05:20:17;;;;;;;1.87;1.10;;;20.80;99.90;;;;;;5041305;28;20908;-78
2023/07/12 05:22:44;;;;;;;1.33;1.00;;;21.00;99.90;;;;;;5036955;27;20928;-78
2023/07/12 05:25:11;;;;;;;4.00;1.00;;;21.10;99.90;;;;;;5057097;27;20469;-78
2023/07/12 05:27:39;;;;;;;1.67;1.17;;;21.20;99.90;;;;;;5038501;28;21163;-77
2023/07/12 05:30:07;;;;;;;2.80;1.60;;;21.10;99.90;;;;;;5037107;27;20462;-80
2023/07/12 05:32:35;;;;;;;1.90;1.30;;;21.10;99.90;;;;;;5052414;27;20576;-79
2023/07/12 05:35:03;;;;;;;3.23;1.27;;;21.10;99.90;;;;;;5060145;27;21031;-77
2023/07/12 05:37:30;;;;;;;1.40;1.30;;;21.20;99.90;;;;;;5039431;28;20548;-76
2023/07/12 05:39:57;;;;;;;3.03;1.17;;;21.10;99.90;;;;;;5061462;27;20537;-77
2023/07/12 05:42:24;;;;;;;3.17;1.23;;;21.00;99.90;;;;;;5041765;27;21303;-78
2023/07/12 05:44:51;;;;;;;2.93;1.50;;;21.10;99.90;;;;;;5040732;27;20548;-79
2023/07/12 05:47:18;;;;;;;1.63;1.37;;;21.40;99.90;;;;;;5031693;27;20580;-76
2023/07/12 05:49:45;;;;;;;4.37;0.83;;;21.70;99.90;;;;;;5035457;27;20466;-77
2023/07/12 05:52:13;;;;;;;1.07;0.97;;;21.70;99.90;;;;;;5036805;28;20563;-79
2023/07/12 05:54:40;;;;;;;4.43;1.00;;;21.90;99.90;;;;;;5042362;28;20549;-75
2023/07/12 05:57:07;;;;;;;0.90;0.80;;;22.10;99.90;;;;;;5035779;28;20544;-81
2023/07/12 05:59:34;;;;;;;0.70;0.60;;;22.20;99.90;;;;;;5038646;28;20886;-78
2023/07/12 06:02:01;;;;;;;1.47;0.70;;;22.30;99.90;;;;;;5047219;27;20532;-77
2023/07/12 06:04:28;;;;;;;1.80;1.50;;;22.30;99.90;;;;;;5039915;28;20560;-78
2023/07/12 06:06:55;;;;;;;1.57;0.80;;;22.30;99.90;;;;;;5041374;27;20537;-81
2023/07/12 06:09:23;;;;;;;2.30;0.70;;;22.30;99.90;;;;;;5058969;27;20898;-78
2023/07/12 06:11:50;;;;;;;3.37;0.70;;;22.40;99.90;;;;;;5042712;27;20565;-82
2023/07/12 06:14:17;;;;;;;5.10;1.50;;;22.60;99.90;;;;;;5048863;27;20919;-77
2023/07/12 06:16:45;;;;;;;2.80;0.90;;;22.70;99.90;;;;;;5037871;27;20537;-77
2023/07/12 06:19:12;;;;;;;2.07;1.00;;;22.80;99.90;;;;;;5042982;28;20814;-78
2023/07/12 06:21:39;;;;;;;1.73;1.00;;;22.80;99.90;;;;;;5044146;28;20533;-78
2023/07/12 06:24:07;;;;;;;2.70;1.10;;;22.80;99.90;;;;;;5039761;28;21006;-81
2023/07/12 06:26:35;;;;;;;1.97;1.33;;;22.90;99.90;;;;;;5043826;28;20811;-78
2023/07/12 06:29:03;;;;;;;1.43;0.90;;;22.60;99.90;;;;;;5041252;28;20463;-83
2023/07/12 06:31:30;;;;;;;1.93;0.90;;;22.60;99.90;;;;;;5038731;27;20572;-79
2023/07/12 06:33:59;;;;;;;1.33;0.90;;;22.90;99.90;;;;;;5038642;27;20553;-80
2023/07/12 06:36:26;;;;;;;3.20;1.00;;;23.30;99.90;;;;;;5040591;28;20454;-80
2023/07/12 06:38:53;;;;;;;1.00;0.80;;;23.50;99.90;;;;;;5041921;28;20540;-78
2023/07/12 06:41:20;;;;;;;2.70;1.13;;;23.40;99.90;;;;;;5045114;27;20568;-79
2023/07/12 06:43:48;;;;;;;4.50;0.90;;;23.50;99.90;;;;;;5036304;28;20473;-77
2023/07/12 06:46:15;;;;;;;2.30;0.80;;;23.30;99.90;;;;;;5036277;28;20557;-81
2023/07/12 06:48:43;;;;;;;0.77;0.60;;;23.50;99.90;;;;;;5042918;28;20451;-82
2023/07/12 06:51:10;;;;;;;0.63;0.63;;;23.40;99.90;;;;;;5040917;28;20554;-79
2023/07/12 06:53:37;;;;;;;0.70;0.70;;;23.50;99.90;;;;;;5043094;28;20805;-80
2023/07/12 06:56:04;;;;;;;2.10;0.77;;;23.30;99.90;;;;;;5039473;28;20552;-80
2023/07/12 06:58:31;;;;;;;1.10;0.67;;;23.40;99.90;;;;;;5039363;28;20957;-83
2023/07/12 07:00:59;;;;;;;2.17;0.77;;;23.60;99.90;;;;;;5042204;28;20514;-81
2023/07/12 07:03:26;;;;;;;0.90;0.70;;;23.60;99.90;;;;;;5035760;27;20551;-80
2023/07/12 07:05:54;;;;;;;3.03;1.30;;;23.80;99.90;;;;;;5038605;28;20476;-79
2023/07/12 07:08:21;;;;;;;1.00;0.70;;;23.90;99.90;;;;;;5038293;28;20884;-81
2023/07/12 07:10:52;;;;;;;1.90;1.40;;;23.70;99.90;;;;;;5041595;28;20571;-80
2023/07/12 07:13:21;;;;;;;2.93;0.77;;;23.90;99.90;;;;;;5035912;28;21113;-81
2023/07/12 07:15:48;;;;;;;1.13;0.60;;;24.10;99.90;;;;;;5042700;28;20499;-79
2023/07/12 07:18:17;;;;;;;2.30;0.90;;;24.50;99.90;;;;;;5043216;28;20555;-79
2023/07/12 07:20:44;;;;;;;0.90;0.60;;;25.00;99.90;;;;;;5044340;28;20469;-80
2023/07/12 07:23:12;;;;;;;0.70;0.63;;;25.00;99.90;;;;;;5039397;28;20524;-80
2023/07/12 07:25:39;;;;;;;3.33;0.80;;;25.00;99.90;;;;;;5045136;28;20437;-80
2023/07/12 07:28:07;;;;;;;0.77;0.70;;;25.10;99.90;;;;;;5046084;27;20453;-81
2023/07/12 07:30:34;;;;;;;1.10;0.80;;;25.20;99.90;;;;;;5045018;28;20540;-80
2023/07/12 07:33:00;;;;;;;2.47;0.73;;;24.90;99.90;;;;;;5037782;28;20559;-80
2023/07/12 07:35:29;;;;;;;0.83;0.57;;;25.00;99.90;;;;;;5046444;28;20494;-81
2023/07/12 07:37:56;;;;;;;1.23;1.00;;;25.00;99.90;;;;;;5042671;28;20477;-80
2023/07/12 07:40:22;;;;;;;1.33;0.90;;;25.30;99.90;;;;;;5066955;27;20485;-79
2023/07/12 07:42:49;;;;;;;5.10;1.10;;;25.60;99.90;;;;;;5044218;27;20499;-81
2023/07/12 07:45:17;;;;;;;3.57;0.83;;;26.00;99.90;;;;;;5060994;27;20973;-81
2023/07/12 07:47:45;;;;;;;1.73;0.90;;;26.10;99.40;;;;;;5073063;27;20449;-80
2023/07/12 07:50:12;;;;;;;2.13;0.90;;;26.30;99.90;;;;;;5053277;27;20504;-80
2023/07/12 07:52:40;;;;;;;2.03;1.30;;;26.50;98.00;;;;;;5048985;27;20559;-79
2023/07/12 07:55:09;;;;;;;2.73;1.40;;;26.30;97.70;;;;;;5047575;27;20496;-80
2023/07/12 07:57:36;;;;;;;1.90;1.03;;;26.20;98.50;;;;;;5047398;27;20549;-80
2023/07/12 08:00:10;;;;;;;1.10;0.70;;;26.30;98.50;;;;;;5040732;28;20552;-81
2023/07/12 08:02:37;;;;;;;2.83;1.00;;;26.20;98.10;;;;;;5041009;28;20453;-80
2023/07/12 08:05:04;;;;;;;0.90;0.67;;;25.90;97.90;;;;;;5045255;28;20988;-79
2023/07/12 08:07:38;;;;;;;0.80;0.70;;;25.60;99.20;;;;;;5046140;28;20482;-79
2023/07/12 08:10:08;;;;;;;1.37;0.90;;;25.60;98.90;;;;;;5077949;27;20963;-79
2023/07/12 08:12:35;;;;;;;3.20;0.87;;;25.60;99.90;;;;;;5045151;28;20568;-80
2023/07/12 08:15:02;;;;;;;1.40;0.90;;;25.70;99.30;;;;;;5041236;28;20543;-80
2023/07/12 08:17:29;;;;;;;1.87;0.90;;;25.60;98.30;;;;;;5045570;28;20473;-80
2023/07/12 08:19:56;;;;;;;3.70;0.77;;;25.70;97.90;;;;;;5044645;28;20502;-80
2023/07/12 08:22:24;;;;;;;1.67;1.17;;;25.60;98.60;;;;;;5041203;27;20460;-81
2023/07/12 08:24:51;;;;;;;2.10;1.30;;;25.60;98.40;;;;;;5045955;28;20852;-79
2023/07/12 08:27:19;;;;;;;5.20;1.07;;;25.80;98.70;;;;;;5043763;28;20539;-82
2023/07/12 08:29:46;;;;;;;3.73;1.23;;;25.70;99.10;;;;;;5042562;28;21061;-79
2023/07/12 08:32:13;;;;;;;1.00;0.90;;;25.80;98.80;;;;;;5039441;28;20560;-78
2023/07/12 08:34:40;;;;;;;2.63;1.60;;;25.90;98.30;;;;;;5056167;27;20900;-80
2023/07/12 08:37:07;;;;;;;2.00;1.17;;;26.00;98.20;;;;;;5039107;28;20489;-80
2023/07/12 08:39:34;;;;;;;1.67;1.40;;;26.10;97.80;;;;;;5046000;27;20556;-82
2023/07/12 08:42:01;;;;;;;4.13;0.83;;;26.10;97.90;;;;;;5036847;28;20576;-80
2023/07/12 08:44:33;;;;;;;1.37;0.73;;;26.00;97.80;;;;;;5042250;27;20887;-80
2023/07/12 08:47:00;;;;;;;4.57;1.03;;;25.90;98.10;;;;;;5042693;28;20513;-78
2023/07/12 08:49:29;;;;;;;0.90;0.90;;;26.00;98.30;;;;;;5036912;28;20513;-80
2023/07/12 08:52:00;;;;;;;1.10;1.00;;;26.10;98.30;;;;;;5036582;28;20477;-79
2023/07/12 08:54:33;;;;;;;1.43;0.80;;;26.00;97.80;;;;;;5042762;28;20461;-80
2023/07/12 08:57:15;;;;;;;1.87;1.73;;;26.30;98.50;;;;;;5037400;28;20477;-82
2023/07/12 08:59:45;;;;;;;2.40;1.00;;;26.50;96.70;;;;;;5039433;28;21068;-79
2023/07/12 09:02:19;;;;;;;4.87;1.23;;;26.50;97.20;;;;;;5045078;28;20488;-79
2023/07/12 09:04:47;;;;;;;1.63;1.10;;;26.30;96.30;;;;;;5041792;28;20537;-79
2023/07/12 09:07:22;;;;;;;2.13;1.20;;;26.50;96.70;;;;;;5044431;28;20524;-82
2023/07/12 09:09:49;;;;;;;1.83;1.53;;;26.80;96.90;;;;;;5077260;27;20461;-81
2023/07/12 09:12:28;;;;;;;1.93;1.27;;;27.00;96.60;;;;;;5043463;28;20582;-80
2023/07/12 09:15:02;;;;;;;2.43;1.33;;;27.10;96.80;;;;;;5044365;28;20532;-79
2023/07/12 09:17:34;;;;;;;4.40;1.83;;;26.90;96.20;;;;;;5044694;28;20442;-79
2023/07/12 09:20:02;;;;;;;2.50;1.30;;;26.90;98.10;;;;;;5036004;28;20518;-82
2023/07/12 09:22:30;;;;;;;1.10;1.00;;;27.10;98.60;;;;;;5044249;28;20453;-80
2023/07/12 09:24:58;;;;;;;1.20;1.10;;;27.20;97.10;;;;;;5044427;28;20506;-80
2023/07/12 09:27:27;;;;;;;1.47;1.10;;;27.60;95.50;;;;;;5041054;27;20969;-80
2023/07/12 09:30:05;;;;;;;2.00;1.10;;;27.10;95.40;;;;;;5044673;28;20536;-79
2023/07/12 09:32:34;;;;;;;2.00;1.47;;;27.20;95.80;;;;;;5040321;28;20532;-79
2023/07/12 09:35:02;;;;;;;1.23;1.10;;;26.90;95.60;;;;;;5040537;28;20448;-78
2023/07/12 09:37:36;;;;;;;3.73;1.07;;;27.10;96.10;;;;;;5031843;28;20492;-81
2023/07/12 09:40:04;;;;;;;1.93;1.20;;;27.10;96.20;;;;;;5040549;27;21062;-79
2023/07/12 09:42:32;;;;;;;4.10;1.50;;;26.90;97.00;;;;;;5037754;28;20580;-81
2023/07/12 09:45:04;;;;;;;2.80;1.40;;;26.90;98.00;;;;;;5039505;28;20532;-81
2023/07/12 09:47:42;;;;;;;1.77;1.67;;;27.00;96.90;;;;;;5043420;28;20488;-78
2023/07/12 09:50:16;;;;;;;2.80;2.07;;;27.00;96.40;;;;;;5042744;28;20554;-79
2023/07/12 09:52:59;;;;;;;1.93;1.57;;;26.90;96.70;;;;;;5043987;28;21115;-81
2023/07/12 09:55:35;;;;;;;2.00;1.20;;;26.90;96.10;;;;;;5039303;28;20552;-82
2023/07/12 09:58:12;;;;;;;2.40;1.87;;;26.90;96.20;;;;;;5037740;28;20500;-81
2023/07/12 10:00:51;;;;;;;2.47;2.20;;;26.70;96.00;;;;;;5038297;28;20469;-80
2023/07/12 10:03:24;;;;;;;1.50;1.10;;;26.90;95.20;;;;;;5040143;28;20560;-80
2023/07/12 10:05:56;;;;;;;2.40;1.77;;;26.90;94.60;;;;;;5044010;28;20468;-79
2023/07/12 10:08:26;;;;;;;1.17;1.07;;;27.00;94.30;;;;;;5042934;28;20589;-80
2023/07/12 10:10:59;;;;;;;2.77;1.60;;;26.80;95.10;;;;;;5042433;28;20497;-79
2023/07/12 10:13:38;;;;;;;6.07;1.33;;;27.20;93.90;;;;;;5034917;28;21043;-82
2023/07/12 10:16:12;;;;;;;0.83;0.83;;;27.50;93.60;;;;;;5038515;28;20777;-80
2023/07/12 10:18:40;;;;;;;1.83;1.73;;;27.30;92.20;;;;;;5041303;28;20531;-80
2023/07/12 10:21:10;;;;;;;4.40;1.80;;;27.30;92.20;;;;;;5038112;28;20556;-79
2023/07/12 10:23:46;;;;;;;2.60;1.53;;;27.20;91.70;;;;;;5044079;28;20479;-82
2023/07/12 10:26:15;;;;;;;6.03;1.97;;;27.20;92.70;;;;;;5044229;28;20533;-80
2023/07/12 10:28:46;;;;;;;2.27;1.10;;;26.90;92.20;;;;;;5042635;28;20497;-80
2023/07/12 10:31:37;;;;;;;1.80;1.40;;;26.60;92.30;;;;;;5044714;28;20584;-80
2023/07/12 10:34:19;;;;;;;2.23;1.80;;;26.40;93.60;;;;;;5033200;28;20481;-81
2023/07/12 10:36:48;;;;;;;2.33;2.13;;;26.30;94.40;;;;;;5042862;28;20532;-81
2023/07/12 10:39:16;;;;;;;2.03;1.63;;;26.40;94.50;;;;;;5037976;28;20461;-81
2023/07/12 10:41:47;;;;;;;2.90;1.30;;;26.30;94.30;;;;;;5042651;28;20500;-79
2023/07/12 10:44:20;;;;;;;2.43;1.30;;;26.20;94.40;;;;;;5044653;28;20464;-81
2023/07/12 10:46:52;;;;;;;2.07;1.53;;;26.40;93.90;;;;;;5042398;28;20485;-81
2023/07/12 10:49:40;;;;;;;4.30;1.83;;;26.60;92.20;;;;;;5041360;28;20688;-81
2023/07/12 10:52:28;;;;;;;6.17;1.23;;;27.00;92.40;;;;;;5042880;28;20504;-79
2023/07/12 10:55:17;;;;;;;3.47;1.70;;;27.20;91.90;;;;;;5035338;27;20462;-78
2023/07/12 10:57:46;;;;;;;3.13;1.40;;;27.40;91.60;;;;;;5042172;28;20537;-81
2023/07/12 11:00:30;;;;;;;2.80;1.90;;;27.30;90.80;;;;;;5053893;27;21257;-82
2023/07/12 11:03:04;;;;;;;5.40;1.83;;;27.70;91.20;;;;;;5046145;28;20455;-81
2023/07/12 11:05:42;;;;;;;1.90;1.40;;;27.90;89.50;;;;;;5045374;28;20464;-79
2023/07/12 11:08:39;;;;;;;3.53;2.10;;;28.30;89.10;;;;;;5046437;27;20997;-79
2023/07/12 11:11:49;;;;;;;4.40;2.77;;;28.30;88.10;;;;;;5055731;27;20483;-78
2023/07/12 11:14:42;;;;;;;4.60;1.57;;;28.20;85.20;;;;;;5058715;27;20582;-80
2023/07/12 11:17:15;;;;;;;3.13;1.60;;;28.30;83.70;;;;;;5044231;27;20456;-80
2023/07/12 11:19:47;;;;;;;2.97;1.40;;;28.40;85.50;;;;;;5036911;28;20888;-78
2023/07/12 11:22:18;;;;;;;1.80;1.40;;;28.60;83.80;;;;;;5045344;28;20619;-81
2023/07/12 11:24:56;;;;;;;1.13;1.00;;;28.60;84.60;;;;;;5044632;28;20504;-82
2023/07/12 11:27:32;;;;;;;1.53;1.43;;;29.00;83.50;;;;;;5043111;28;20547;-81
2023/07/12 11:30:14;;;;;;;3.57;1.60;;;29.20;83.90;;;;;;5040172;28;20453;-79
2023/07/12 11:32:42;;;;;;;2.33;1.43;;;29.40;85.40;;;;;;5047666;27;20495;-79
2023/07/12 11:35:14;;;;;;;1.40;1.23;;;29.50;80.00;;;;;;5069277;27;20533;-78
2023/07/12 11:37:46;;;;;;;1.30;1.20;;;29.50;77.20;;;;;;5051064;27;20507;-78
2023/07/12 11:40:18;;;;;;;2.57;1.73;;;29.50;74.50;;;;;;5086321;27;20525;-78
2023/07/12 11:42:45;;;;;;;3.23;1.37;;;29.40;76.20;;;;;;5069129;27;20479;-78
2023/07/12 11:45:15;;;;;;;2.60;1.53;;;29.30;79.60;;;;;;5075346;27;20472;-78
2023/07/12 11:47:44;;;;;;;0.70;0.70;;;29.10;73.50;;;;;;5052351;28;20847;-78
2023/07/12 11:50:19;;;;;;;3.47;1.40;;;28.60;76.70;;;;;;5049793;28;20503;-78
2023/07/12 11:52:49;;;;;;;1.93;1.83;;;28.40;75.00;;;;;;5050275;28;20803;-79
2023/07/12 11:55:18;;;;;;;2.30;2.10;;;28.60;75.90;;;;;;5059355;28;20462;-81
2023/07/12 11:57:46;;;;;;;1.47;1.20;;;28.80;76.80;;;;;;5053650;28;20464;-78
2023/07/12 12:00:18;;;;;;;4.00;1.40;;;28.80;75.60;;;;;;5059015;28;20480;-79
2023/07/12 12:02:49;;;;;;;1.37;1.27;;;28.90;76.60;;;;;;5050603;28;20465;-78
2023/07/12 12:05:21;;;;;;;2.67;1.87;;;29.00;74.60;;;;;;5044247;28;20440;-78
2023/07/12 12:07:49;;;;;;;1.40;1.30;;;29.10;73.80;;;;;;5045518;27;20527;-80
2023/07/12 12:10:22;;;;;;;2.23;1.30;;;29.10;74.40;;;;;;5058928;27;20476;-79
2023/07/12 12:12:50;;;;;;;2.63;1.17;;;29.00;74.10;;;;;;5043370;28;20482;-81
2023/07/12 12:15:22;;;;;;;2.03;1.17;;;28.90;72.40;;;;;;5043890;28;20504;-79
2023/07/12 12:17:51;;;;;;;1.20;1.00;;;29.10;71.30;;;;;;5040611;28;21005;-79
2023/07/12 12:20:21;;;;;;;2.13;1.27;;;29.00;71.10;;;;;;5039173;28;20973;-80
2023/07/12 12:22:56;;;;;;;2.60;1.33;;;28.70;70.50;;;;;;5045052;28;21055;-82
2023/07/12 12:25:25;;;;;;;1.50;1.30;;;28.90;69.70;;;;;;5043623;28;20536;-80
2023/07/12 12:27:52;;;;;;;1.20;0.93;;;28.90;68.00;;;;;;5042812;28;20519;-81
2023/07/12 12:30:23;;;;;;;1.70;1.20;;;29.10;74.40;;;;;;5045431;28;20958;-83
2023/07/12 12:33:00;;;;;;;2.03;1.73;;;29.30;72.90;;;;;;5040600;28;20468;-80
2023/07/12 12:35:27;;;;;;;1.20;1.10;;;29.10;68.20;;;;;;5043605;28;20535;-81
2023/07/12 12:37:56;;;;;;;2.00;1.00;;;29.10;70.60;;;;;;5043325;28;20548;-79
2023/07/12 12:40:24;;;;;;;1.67;1.57;;;29.30;69.50;;;;;;5046046;27;20479;-77
2023/07/12 12:42:54;;;;;;;1.73;1.00;;;29.60;66.90;;;;;;5044613;28;20569;-78
2023/07/12 12:45:21;;;;;;;1.10;1.00;;;29.90;63.90;;;;;;5046796;28;20535;-78
2023/07/12 12:47:48;;;;;;;1.27;0.90;;;30.20;65.50;;;;;;5042955;27;20552;-79
2023/07/12 12:50:20;;;;;;;1.57;1.37;;;30.00;63.20;;;;;;5040976;28;20584;-78
2023/07/12 12:52:48;;;;;;;1.30;1.20;;;29.90;63.50;;;;;;5044646;28;20457;-79
2023/07/12 12:55:16;;;;;;;2.63;1.37;;;29.90;63.80;;;;;;5045585;28;20473;-78
2023/07/12 12:57:43;;;;;;;1.93;1.07;;;29.90;66.70;;;;;;5039171;28;20544;-78
2023/07/12 13:00:17;;;;;;;2.70;1.70;;;30.10;65.00;;;;;;5043393;28;20529;-79
2023/07/12 13:02:44;;;;;;;2.53;1.07;;;30.50;62.40;;;;;;5043558;28;20445;-78
2023/07/12 13:05:11;;;;;;;1.70;1.60;;;30.10;59.00;;;;;;5043995;27;21012;-78
2023/07/12 13:07:41;;;;;;;1.47;1.13;;;29.90;59.80;;;;;;5037094;28;20468;-80
2023/07/12 13:10:15;;;;;;;2.07;1.20;;;29.90;58.00;;;;;;5113493;27;20468;-81
2023/07/12 13:12:44;;;;;;;2.97;1.20;;;30.10;60.90;;;;;;5041919;28;20973;-80
2023/07/12 13:15:15;;;;;;;3.30;1.30;;;30.00;58.20;;;;;;5042408;28;20607;-82
2023/07/12 13:17:43;;;;;;;1.43;1.20;;;30.40;59.40;;;;;;5046416;28;20967;-80
2023/07/12 13:20:13;;;;;;;1.73;1.40;;;30.20;56.20;;;;;;5051547;28;20443;-79
2023/07/12 13:22:40;;;;;;;1.07;0.97;;;30.20;58.50;;;;;;5054420;28;20452;-80
2023/07/12 13:25:09;;;;;;;2.57;1.60;;;30.20;55.90;;;;;;5054776;28;20457;-80
2023/07/12 13:27:38;;;;;;;2.73;1.30;;;30.40;56.90;;;;;;5058075;28;20477;-79
2023/07/12 13:30:14;;;;;;;1.00;1.00;;;30.60;60.20;;;;;;5056975;28;20465;-79
2023/07/12 13:32:42;;;;;;;2.10;1.40;;;31.30;55.70;;;;;;5060963;28;20461;-78
2023/07/12 13:35:14;;;;;;;3.07;0.93;;;31.00;55.80;;;;;;5058650;28;20517;-78
2023/07/12 13:37:42;;;;;;;5.97;2.30;;;30.90;52.10;;;;;;5047125;28;20486;-79
2023/07/12 13:40:13;;;;;;;1.27;1.17;;;31.10;57.00;;;;;;5052138;28;20468;-80
2023/07/12 13:42:43;;;;;;;2.20;1.27;;;31.40;53.30;;;;;;5043320;28;20521;-79
2023/07/12 13:45:12;;;;;;;1.30;1.20;;;31.60;53.20;;;;;;5044550;28;20453;-81
2023/07/12 13:47:39;;;;;;;2.13;0.90;;;31.40;53.10;;;;;;5043716;28;20514;-78
2023/07/12 13:50:12;;;;;;;1.00;0.87;;;31.50;53.10;;;;;;5039351;28;20576;-79
2023/07/12 13:52:39;;;;;;;1.90;0.90;;;31.80;57.40;;;;;;5044018;28;20476;-79
2023/07/12 13:55:07;;;;;;;1.53;1.00;;;31.60;51.70;;;;;;5041795;28;20517;-79
2023/07/12 13:57:34;;;;;;;1.20;0.90;;;31.10;51.80;;;;;;5039516;28;20437;-80
2023/07/12 14:00:06;;;;;;;1.20;0.90;;;30.90;53.60;;;;;;5040125;28;20564;-79
2023/07/12 14:02:36;;;;;;;1.70;0.80;;;30.70;51.00;;;;;;5044507;28;20444;-79
2023/07/12 14:05:06;;;;;;;2.77;1.27;;;31.30;56.30;;;;;;5043158;28;20539;-79
2023/07/12 14:07:35;;;;;;;1.50;1.40;;;31.30;50.70;;;;;;5043710;28;20437;-79
2023/07/12 14:10:02;;;;;;;1.13;1.03;;;31.10;53.60;;;;;;5043304;28;20441;-81
2023/07/12 14:12:31;;;;;;;1.00;0.90;;;31.10;55.80;;;;;;5044569;28;20469;-79
2023/07/12 14:14:58;;;;;;;1.80;1.07;;;31.20;52.40;;;;;;5040054;28;20481;-81
2023/07/12 14:17:27;;;;;;;1.47;1.20;;;31.30;52.70;;;;;;5042430;28;20462;-79
2023/07/12 14:19:57;;;;;;;1.47;1.37;;;31.10;51.30;;;;;;5039651;28;20541;-79
2023/07/12 14:22:26;;;;;;;2.60;1.63;;;31.70;53.10;;;;;;5040402;28;20537;-78
2023/07/12 14:24:53;;;;;;;4.30;2.20;;;31.90;49.80;;;;;;5043825;28;20536;-79
2023/07/12 14:27:23;;;;;;;1.37;1.00;;;31.50;52.20;;;;;;5039755;28;20457;-80
2023/07/12 14:29:52;;;;;;;3.30;0.93;;;31.90;51.10;;;;;;5043951;28;20485;-81
2023/07/12 14:32:20;;;;;;;1.07;0.90;;;32.10;49.90;;;;;;5034700;28;20498;-79
2023/07/12 14:34:48;;;;;;;1.40;1.07;;;32.30;51.60;;;;;;5042598;28;20588;-77
2023/07/12 14:37:18;;;;;;;2.20;1.40;;;32.50;48.70;;;;;;5037962;28;20553;-81
2023/07/12 14:39:45;;;;;;;2.00;1.10;;;32.50;47.80;;;;;;5050493;27;20554;-79
2023/07/12 14:42:17;;;;;;;1.67;1.13;;;32.60;47.50;;;;;;5040216;28;20570;-78
2023/07/12 14:44:44;;;;;;;1.47;0.90;;;31.90;46.00;;;;;;5043772;28;20529;-82
2023/07/12 14:47:13;;;;;;;2.27;0.90;;;31.40;46.70;;;;;;5042096;28;21001;-79
2023/07/12 14:49:40;;;;;;;1.40;1.30;;;31.60;49.20;;;;;;5036588;28;20481;-79
2023/07/12 14:52:21;;;;;;;0.97;0.77;;;32.00;47.30;;;;;;5038139;28;20561;-78
2023/07/12 14:54:48;;;;;;;2.47;1.17;;;31.30;46.70;;;;;;5036982;28;20470;-80
2023/07/12 14:57:16;;;;;;;2.17;0.97;;;31.80;47.40;;;;;;5039808;27;21028;-79
2023/07/12 14:59:44;;;;;;;2.70;2.50;;;32.20;45.70;;;;;;5059973;28;20500;-82
2023/07/12 15:02:19;;;;;;;3.17;1.53;;;32.20;43.70;;;;;;5049602;28;20469;-79
2023/07/12 15:04:47;;;;;;;1.47;1.27;;;32.40;47.00;;;;;;5042386;28;20819;-79
2023/07/12 15:07:20;;;;;;;1.27;1.10;;;32.40;47.00;;;;;;5042836;28;20476;-79
2023/07/12 15:09:48;;;;;;;0.93;0.83;;;32.40;45.50;;;;;;5054545;27;20472;-80
2023/07/12 15:12:40;;;;;;;0.80;0.80;;;32.60;42.60;;;;;;5043459;28;20568;-78
2023/07/12 15:15:18;;;;;;;1.77;1.60;;;32.30;46.80;;;;;;5026121;27;20581;-80
2023/07/12 15:17:49;;;;;;;1.90;0.83;;;32.70;46.90;;;;;;5038753;28;20548;-79
2023/07/12 15:20:16;;;;;;;1.80;0.90;;;33.10;42.30;;;;;;5038128;28;20465;-81
2023/07/12 15:22:44;;;;;;;2.70;1.00;;;33.20;42.90;;;;;;5058352;28;20452;-79
2023/07/12 15:25:20;;;;;;;4.27;1.03;;;33.70;44.00;;;;;;5040966;28;21157;-79
2023/07/12 15:27:49;;;;;;;2.93;0.90;;;33.90;40.50;;;;;;5042116;28;20524;-81
2023/07/12 15:30:18;;;;;;;1.87;0.80;;;33.90;38.00;;;;;;5040007;28;21047;-79
2023/07/12 15:32:45;;;;;;;1.30;1.23;;;33.50;40.80;;;;;;5038124;28;20544;-79
2023/07/12 15:35:26;;;;;;;1.43;0.80;;;33.50;39.80;;;;;;5040840;28;20572;-81
2023/07/12 15:37:54;;;;;;;1.17;1.07;;;33.40;40.20;;;;;;5039513;27;20523;-78